Oranjestad, Aruba
Current Conditions -  °F | °C
As of 6:00 AM on Thursday 29 Jan 2015 (Local Time) from TNCA Reporting Station
Few Clouds Few Clouds  
Wind Chill: 79°   Ceiling: Unl
Heat Index: 82°   Visibility: 6mi
Dew Point: 72°   Wind: 13mph
Humidity: 78%   Direction: 70°ENE
Pressure: 29.85"   Gusts: NA
Location:  12.51°N, 70.03°W
Report Text: TNCA 291000Z 07011KT 9999 FEW018 26/22 Q1011 A2987 NOSIG
Loading
Personal Weather Stations






























Interactive Weather Map New forecast layout! Learn more

10-Day Weather Forecast

Advertisements
Track Severe Weather on mobile